sensor_id;sensor_type;location;lat;lon;timestamp;temperature;humidity
9658;DHT22;4867;48.112;11.622;2022-08-25T00:00:15;17.30;99.90
9658;DHT22;4867;48.112;11.622;2022-08-25T00:02:42;17.30;99.90
9658;DHT22;4867;48.112;11.622;2022-08-25T00:05:24;17.30;99.90
9658;DHT22;4867;48.112;11.622;2022-08-25T00:07:58;17.30;99.90
9658;DHT22;4867;48.112;11.622;2022-08-25T00:10:26;17.20;99.90
9658;DHT22;4867;48.112;11.622;2022-08-25T00:12:54;17.20;99.90
9658;DHT22;4867;48.112;11.622;2022-08-25T00:15:21;17.10;99.90
9658;DHT22;4867;48.112;11.622;2022-08-25T00:17:48;17.10;99.90
9658;DHT22;4867;48.112;11.622;2022-08-25T00:20:16;17.10;99.90
9658;DHT22;4867;48.112;11.622;2022-08-25T00:22:43;17.00;99.90
9658;DHT22;4867;48.112;11.622;2022-08-25T00:25:11;17.00;99.90
9658;DHT22;4867;48.112;11.622;2022-08-25T00:27:38;17.00;99.90
9658;DHT22;4867;48.112;11.622;2022-08-25T00:30:06;17.00;99.90
9658;DHT22;4867;48.112;11.622;2022-08-25T00:32:33;17.00;99.90
9658;DHT22;4867;48.112;11.622;2022-08-25T00:35:00;16.90;99.90
9658;DHT22;4867;48.112;11.622;2022-08-25T00:37:27;16.90;99.90
9658;DHT22;4867;48.112;11.622;2022-08-25T00:39:54;17.00;99.90
9658;DHT22;4867;48.112;11.622;2022-08-25T00:42:25;16.90;99.90
9658;DHT22;4867;48.112;11.622;2022-08-25T00:44:52;17.00;99.90
9658;DHT22;4867;48.112;11.622;2022-08-25T00:47:19;16.90;99.90
9658;DHT22;4867;48.112;11.622;2022-08-25T00:49:58;16.80;99.90
9658;DHT22;4867;48.112;11.622;2022-08-25T00:52:33;16.80;99.90
9658;DHT22;4867;48.112;11.622;2022-08-25T00:57:43;16.70;99.90
9658;DHT22;4867;48.112;11.622;2022-08-25T01:00:15;16.70;99.90
9658;DHT22;4867;48.112;11.622;2022-08-25T01:02:42;16.60;99.90
9658;DHT22;4867;48.112;11.622;2022-08-25T01:05:09;16.60;99.90
9658;DHT22;4867;48.112;11.622;2022-08-25T01:07:36;16.60;99.90
9658;DHT22;4867;48.112;11.622;2022-08-25T01:10:07;16.50;99.90
9658;DHT22;4867;48.112;11.622;2022-08-25T01:12:44;16.60;99.90
9658;DHT22;4867;48.112;11.622;2022-08-25T01:15:13;16.60;99.90
9658;DHT22;4867;48.112;11.622;2022-08-25T01:20:16;16.60;99.90
9658;DHT22;4867;48.112;11.622;2022-08-25T01:22:45;16.50;99.90
9658;DHT22;4867;48.112;11.622;2022-08-25T01:25:46;16.60;99.90
9658;DHT22;4867;48.112;11.622;2022-08-25T01:28:16;16.50;99.90
9658;DHT22;4867;48.112;11.622;2022-08-25T01:30:44;16.50;99.90
9658;DHT22;4867;48.112;11.622;2022-08-25T01:33:12;16.40;99.90
9658;DHT22;4867;48.112;11.622;2022-08-25T01:35:39;16.40;99.90
9658;DHT22;4867;48.112;11.622;2022-08-25T01:38:08;16.40;99.90
9658;DHT22;4867;48.112;11.622;2022-08-25T01:40:36;16.40;99.90
9658;DHT22;4867;48.112;11.622;2022-08-25T01:45:46;16.40;99.90
9658;DHT22;4867;48.112;11.622;2022-08-25T01:48:17;16.40;99.90
9658;DHT22;4867;48.112;11.622;2022-08-25T01:50:48;16.40;99.90
9658;DHT22;4867;48.112;11.622;2022-08-25T01:53:26;16.40;99.90
9658;DHT22;4867;48.112;11.622;2022-08-25T01:56:14;16.30;99.90
9658;DHT22;4867;48.112;11.622;2022-08-25T01:58:46;16.30;99.90
9658;DHT22;4867;48.112;11.622;2022-08-25T02:01:21;16.30;99.90
9658;DHT22;4867;48.112;11.622;2022-08-25T02:03:51;16.30;99.90
9658;DHT22;4867;48.112;11.622;2022-08-25T02:06:26;16.30;99.90
9658;DHT22;4867;48.112;11.622;2022-08-25T02:09:01;16.30;99.90
9658;DHT22;4867;48.112;11.622;2022-08-25T02:11:32;16.30;99.90
9658;DHT22;4867;48.112;11.622;2022-08-25T02:14:01;16.30;99.90
9658;DHT22;4867;48.112;11.622;2022-08-25T02:16:32;16.30;99.90
9658;DHT22;4867;48.112;11.622;2022-08-25T02:19:01;16.30;99.90
9658;DHT22;4867;48.112;11.622;2022-08-25T02:21:29;16.20;99.90
9658;DHT22;4867;48.112;11.622;2022-08-25T02:23:57;16.20;99.90
9658;DHT22;4867;48.112;11.622;2022-08-25T02:26:26;16.40;99.90
9658;DHT22;4867;48.112;11.622;2022-08-25T02:28:53;16.20;99.90
9658;DHT22;4867;48.112;11.622;2022-08-25T02:31:21;16.10;99.90
9658;DHT22;4867;48.112;11.622;2022-08-25T02:33:49;16.10;99.90
9658;DHT22;4867;48.112;11.622;2022-08-25T02:36:16;16.10;99.90
9658;DHT22;4867;48.112;11.622;2022-08-25T02:38:44;16.10;99.90
9658;DHT22;4867;48.112;11.622;2022-08-25T02:41:13;15.90;99.90
9658;DHT22;4867;48.112;11.622;2022-08-25T02:43:42;15.90;99.90
9658;DHT22;4867;48.112;11.622;2022-08-25T02:46:10;15.90;99.90
9658;DHT22;4867;48.112;11.622;2022-08-25T02:48:38;15.80;99.90
9658;DHT22;4867;48.112;11.622;2022-08-25T02:51:06;15.90;99.90
9658;DHT22;4867;48.112;11.622;2022-08-25T02:53:36;15.90;99.90
9658;DHT22;4867;48.112;11.622;2022-08-25T02:56:08;15.90;99.90
9658;DHT22;4867;48.112;11.622;2022-08-25T02:58:37;15.90;99.90
9658;DHT22;4867;48.112;11.622;2022-08-25T03:01:05;15.80;99.90
9658;DHT22;4867;48.112;11.622;2022-08-25T03:03:33;15.80;99.90
9658;DHT22;4867;48.112;11.622;2022-08-25T03:06:08;15.80;99.90
9658;DHT22;4867;48.112;11.622;2022-08-25T03:08:36;15.80;99.90
9658;DHT22;4867;48.112;11.622;2022-08-25T03:11:04;15.80;99.90
9658;DHT22;4867;48.112;11.622;2022-08-25T03:13:31;15.80;99.90
9658;DHT22;4867;48.112;11.622;2022-08-25T03:15:59;15.80;99.90
9658;DHT22;4867;48.112;11.622;2022-08-25T03:18:28;15.80;99.90
9658;DHT22;4867;48.112;11.622;2022-08-25T03:20:56;15.80;99.90
9658;DHT22;4867;48.112;11.622;2022-08-25T03:23:25;15.70;99.90
9658;DHT22;4867;48.112;11.622;2022-08-25T03:25:54;15.70;99.90
9658;DHT22;4867;48.112;11.622;2022-08-25T03:28:39;15.70;99.90
9658;DHT22;4867;48.112;11.622;2022-08-25T03:31:11;15.70;99.90
9658;DHT22;4867;48.112;11.622;2022-08-25T03:33:39;15.60;99.90
9658;DHT22;4867;48.112;11.622;2022-08-25T03:36:07;15.60;99.90
9658;DHT22;4867;48.112;11.622;2022-08-25T03:38:35;15.60;99.90
9658;DHT22;4867;48.112;11.622;2022-08-25T03:41:30;15.60;99.90
9658;DHT22;4867;48.112;11.622;2022-08-25T03:44:02;15.60;99.90
9658;DHT22;4867;48.112;11.622;2022-08-25T03:46:38;15.60;99.90
9658;DHT22;4867;48.112;11.622;2022-08-25T03:49:08;15.60;99.90
9658;DHT22;4867;48.112;11.622;2022-08-25T03:51:40;15.60;99.90
9658;DHT22;4867;48.112;11.622;2022-08-25T03:54:08;15.60;99.90
9658;DHT22;4867;48.112;11.622;2022-08-25T03:56:36;15.60;99.90
9658;DHT22;4867;48.112;11.622;2022-08-25T03:59:04;15.60;99.90
9658;DHT22;4867;48.112;11.622;2022-08-25T04:01:31;15.60;99.90
9658;DHT22;4867;48.112;11.622;2022-08-25T04:03:58;15.60;99.90
9658;DHT22;4867;48.112;11.622;2022-08-25T04:06:26;15.50;99.90
9658;DHT22;4867;48.112;11.622;2022-08-25T04:08:55;15.50;99.90
9658;DHT22;4867;48.112;11.622;2022-08-25T04:11:26;15.50;99.90
9658;DHT22;4867;48.112;11.622;2022-08-25T04:13:57;15.50;99.90
9658;DHT22;4867;48.112;11.622;2022-08-25T04:16:27;15.50;99.90
9658;DHT22;4867;48.112;11.622;2022-08-25T04:18:59;15.40;99.90
9658;DHT22;4867;48.112;11.622;2022-08-25T04:21:26;15.40;99.90
9658;DHT22;4867;48.112;11.622;2022-08-25T04:23:54;15.40;99.90
9658;DHT22;4867;48.112;11.622;2022-08-25T04:26:32;15.40;99.90
9658;DHT22;4867;48.112;11.622;2022-08-25T04:29:00;15.40;99.90
9658;DHT22;4867;48.112;11.622;2022-08-25T04:31:30;15.40;99.90
9658;DHT22;4867;48.112;11.622;2022-08-25T04:33:59;15.40;99.90
9658;DHT22;4867;48.112;11.622;2022-08-25T04:36:27;15.40;99.90
9658;DHT22;4867;48.112;11.622;2022-08-25T04:38:55;15.40;99.90
9658;DHT22;4867;48.112;11.622;2022-08-25T04:41:22;15.50;99.90
9658;DHT22;4867;48.112;11.622;2022-08-25T04:43:51;15.40;99.90
9658;DHT22;4867;48.112;11.622;2022-08-25T04:46:21;15.50;99.90
9658;DHT22;4867;48.112;11.622;2022-08-25T04:48:52;15.50;99.90
9658;DHT22;4867;48.112;11.622;2022-08-25T04:51:23;15.50;99.90
9658;DHT22;4867;48.112;11.622;2022-08-25T04:53:50;15.50;99.90
9658;DHT22;4867;48.112;11.622;2022-08-25T04:56:20;15.50;99.90
9658;DHT22;4867;48.112;11.622;2022-08-25T04:58:47;15.60;99.90
9658;DHT22;4867;48.112;11.622;2022-08-25T05:01:17;15.50;99.90
9658;DHT22;4867;48.112;11.622;2022-08-25T05:03:53;15.70;99.90
9658;DHT22;4867;48.112;11.622;2022-08-25T05:06:20;15.70;99.90
9658;DHT22;4867;48.112;11.622;2022-08-25T05:08:47;15.80;99.90
9658;DHT22;4867;48.112;11.622;2022-08-25T05:11:16;15.80;99.90
9658;DHT22;4867;48.112;11.622;2022-08-25T05:13:45;15.80;99.90
9658;DHT22;4867;48.112;11.622;2022-08-25T05:16:19;15.90;99.90
9658;DHT22;4867;48.112;11.622;2022-08-25T05:18:49;15.90;99.90
9658;DHT22;4867;48.112;11.622;2022-08-25T05:21:20;15.80;99.90
9658;DHT22;4867;48.112;11.622;2022-08-25T05:23:48;16.00;99.90
9658;DHT22;4867;48.112;11.622;2022-08-25T05:26:19;16.10;99.90
9658;DHT22;4867;48.112;11.622;2022-08-25T05:28:53;16.10;99.90
9658;DHT22;4867;48.112;11.622;2022-08-25T05:31:23;16.10;99.90
9658;DHT22;4867;48.112;11.622;2022-08-25T05:33:51;16.20;99.90
9658;DHT22;4867;48.112;11.622;2022-08-25T05:36:20;16.20;99.90
9658;DHT22;4867;48.112;11.622;2022-08-25T05:38:47;16.20;99.90
9658;DHT22;4867;48.112;11.622;2022-08-25T05:41:18;16.30;99.90
9658;DHT22;4867;48.112;11.622;2022-08-25T05:43:48;16.40;99.90
9658;DHT22;4867;48.112;11.622;2022-08-25T05:46:18;16.50;99.90
9658;DHT22;4867;48.112;11.622;2022-08-25T05:48:48;16.50;99.90
9658;DHT22;4867;48.112;11.622;2022-08-25T05:51:19;16.60;99.90
9658;DHT22;4867;48.112;11.622;2022-08-25T05:53:48;16.70;99.90
9658;DHT22;4867;48.112;11.622;2022-08-25T05:56:16;16.90;99.90
9658;DHT22;4867;48.112;11.622;2022-08-25T05:58:44;16.90;99.90
9658;DHT22;4867;48.112;11.622;2022-08-25T06:01:19;17.00;99.90
9658;DHT22;4867;48.112;11.622;2022-08-25T06:04:05;17.10;99.90
9658;DHT22;4867;48.112;11.622;2022-08-25T06:06:32;17.20;99.90
9658;DHT22;4867;48.112;11.622;2022-08-25T06:09:01;17.30;99.90
9658;DHT22;4867;48.112;11.622;2022-08-25T06:11:30;17.40;99.90
9658;DHT22;4867;48.112;11.622;2022-08-25T06:13:57;17.50;99.90
9658;DHT22;4867;48.112;11.622;2022-08-25T06:16:24;17.60;99.90
9658;DHT22;4867;48.112;11.622;2022-08-25T06:18:51;17.70;99.90
9658;DHT22;4867;48.112;11.622;2022-08-25T06:21:22;17.80;99.90
9658;DHT22;4867;48.112;11.622;2022-08-25T06:23:51;18.00;99.90
9658;DHT22;4867;48.112;11.622;2022-08-25T06:26:19;18.10;99.90
9658;DHT22;4867;48.112;11.622;2022-08-25T06:28:48;18.20;99.90
9658;DHT22;4867;48.112;11.622;2022-08-25T06:31:18;18.30;99.90
9658;DHT22;4867;48.112;11.622;2022-08-25T06:33:46;18.40;99.90
9658;DHT22;4867;48.112;11.622;2022-08-25T06:36:13;18.40;99.90
9658;DHT22;4867;48.112;11.622;2022-08-25T06:38:41;18.50;99.90
9658;DHT22;4867;48.112;11.622;2022-08-25T06:41:08;18.60;99.90
9658;DHT22;4867;48.112;11.622;2022-08-25T06:43:37;18.70;99.90
9658;DHT22;4867;48.112;11.622;2022-08-25T06:46:11;18.80;99.90
9658;DHT22;4867;48.112;11.622;2022-08-25T06:48:39;18.80;99.90
9658;DHT22;4867;48.112;11.622;2022-08-25T06:51:13;18.90;99.90
9658;DHT22;4867;48.112;11.622;2022-08-25T06:53:42;19.00;99.90
9658;DHT22;4867;48.112;11.622;2022-08-25T06:56:11;19.00;99.90
9658;DHT22;4867;48.112;11.622;2022-08-25T06:58:39;19.00;99.90
9658;DHT22;4867;48.112;11.622;2022-08-25T07:01:29;19.20;99.90
9658;DHT22;4867;48.112;11.622;2022-08-25T07:03:59;19.30;99.90
9658;DHT22;4867;48.112;11.622;2022-08-25T07:06:30;19.40;99.90
9658;DHT22;4867;48.112;11.622;2022-08-25T07:08:58;19.40;99.90
9658;DHT22;4867;48.112;11.622;2022-08-25T07:11:27;19.50;99.90
9658;DHT22;4867;48.112;11.622;2022-08-25T07:13:55;19.60;99.90
9658;DHT22;4867;48.112;11.622;2022-08-25T07:16:23;19.60;99.90
9658;DHT22;4867;48.112;11.622;2022-08-25T07:18:56;19.70;99.90
9658;DHT22;4867;48.112;11.622;2022-08-25T07:21:27;19.70;99.90
9658;DHT22;4867;48.112;11.622;2022-08-25T07:23:59;19.80;99.90
9658;DHT22;4867;48.112;11.622;2022-08-25T07:26:30;19.90;99.90
9658;DHT22;4867;48.112;11.622;2022-08-25T07:29:13;20.00;99.90
9658;DHT22;4867;48.112;11.622;2022-08-25T07:31:41;20.20;99.90
9658;DHT22;4867;48.112;11.622;2022-08-25T07:34:09;20.20;99.90
9658;DHT22;4867;48.112;11.622;2022-08-25T07:36:55;20.30;99.90
9658;DHT22;4867;48.112;11.622;2022-08-25T07:39:24;20.40;99.90
9658;DHT22;4867;48.112;11.622;2022-08-25T07:41:52;20.40;99.90
9658;DHT22;4867;48.112;11.622;2022-08-25T07:44:20;20.40;99.90
9658;DHT22;4867;48.112;11.622;2022-08-25T07:46:48;20.60;99.90
9658;DHT22;4867;48.112;11.622;2022-08-25T07:49:20;20.60;99.90
9658;DHT22;4867;48.112;11.622;2022-08-25T07:51:50;20.70;99.90
9658;DHT22;4867;48.112;11.622;2022-08-25T07:54:32;20.70;99.90
9658;DHT22;4867;48.112;11.622;2022-08-25T07:57:06;20.80;99.90
9658;DHT22;4867;48.112;11.622;2022-08-25T07:59:34;20.90;99.90
9658;DHT22;4867;48.112;11.622;2022-08-25T08:02:10;21.00;99.90
9658;DHT22;4867;48.112;11.622;2022-08-25T08:04:49;21.10;99.90
9658;DHT22;4867;48.112;11.622;2022-08-25T08:07:18;21.20;99.90
9658;DHT22;4867;48.112;11.622;2022-08-25T08:09:46;21.30;99.90
9658;DHT22;4867;48.112;11.622;2022-08-25T08:12:22;21.40;99.90
9658;DHT22;4867;48.112;11.622;2022-08-25T08:14:50;21.30;99.90
9658;DHT22;4867;48.112;11.622;2022-08-25T08:17:18;21.40;99.90
9658;DHT22;4867;48.112;11.622;2022-08-25T08:19:46;21.60;99.90
9658;DHT22;4867;48.112;11.622;2022-08-25T08:22:13;21.60;99.90
9658;DHT22;4867;48.112;11.622;2022-08-25T08:24:42;21.70;99.90
9658;DHT22;4867;48.112;11.622;2022-08-25T08:27:22;21.80;99.90
9658;DHT22;4867;48.112;11.622;2022-08-25T08:29:49;21.90;99.90
9658;DHT22;4867;48.112;11.622;2022-08-25T08:32:16;22.00;99.90
9658;DHT22;4867;48.112;11.622;2022-08-25T08:34:44;22.10;99.90
9658;DHT22;4867;48.112;11.622;2022-08-25T08:37:17;22.10;99.90
9658;DHT22;4867;48.112;11.622;2022-08-25T08:39:48;22.20;99.90
9658;DHT22;4867;48.112;11.622;2022-08-25T08:54:15;22.60;99.90
9658;DHT22;4867;48.112;11.622;2022-08-25T08:56:47;22.60;99.90
9658;DHT22;4867;48.112;11.622;2022-08-25T08:59:18;22.60;99.90
9658;DHT22;4867;48.112;11.622;2022-08-25T09:01:50;22.60;99.90
9658;DHT22;4867;48.112;11.622;2022-08-25T09:04:31;22.80;99.90
9658;DHT22;4867;48.112;11.622;2022-08-25T09:07:02;22.90;99.90
9658;DHT22;4867;48.112;11.622;2022-08-25T09:09:33;23.00;99.90
9658;DHT22;4867;48.112;11.622;2022-08-25T09:18:05;23.30;99.90
9658;DHT22;4867;48.112;11.622;2022-08-25T09:26:06;23.40;99.90
9658;DHT22;4867;48.112;11.622;2022-08-25T09:28:50;23.40;99.90
9658;DHT22;4867;48.112;11.622;2022-08-25T09:33:56;23.50;99.90
9658;DHT22;4867;48.112;11.622;2022-08-25T09:36:23;23.70;99.90
9658;DHT22;4867;48.112;11.622;2022-08-25T09:38:51;23.90;99.90
9658;DHT22;4867;48.112;11.622;2022-08-25T09:41:44;24.00;99.90
9658;DHT22;4867;48.112;11.622;2022-08-25T09:44:24;24.10;99.90
9658;DHT22;4867;48.112;11.622;2022-08-25T09:47:03;24.10;99.90
9658;DHT22;4867;48.112;11.622;2022-08-25T09:54:44;24.30;99.90
9658;DHT22;4867;48.112;11.622;2022-08-25T10:00:23;24.50;99.90
9658;DHT22;4867;48.112;11.622;2022-08-25T10:05:48;24.80;99.90
9658;DHT22;4867;48.112;11.622;2022-08-25T10:11:14;25.00;99.90
9658;DHT22;4867;48.112;11.622;2022-08-25T10:14:28;25.20;99.90
9658;DHT22;4867;48.112;11.622;2022-08-25T10:20:11;25.40;99.90
9658;DHT22;4867;48.112;11.622;2022-08-25T10:22:40;25.40;99.90
9658;DHT22;4867;48.112;11.622;2022-08-25T10:25:13;25.50;99.90
9658;DHT22;4867;48.112;11.622;2022-08-25T10:33:14;25.60;99.90
9658;DHT22;4867;48.112;11.622;2022-08-25T10:38:43;25.50;99.90
9658;DHT22;4867;48.112;11.622;2022-08-25T10:55:45;25.90;99.90
9658;DHT22;4867;48.112;11.622;2022-08-25T11:03:44;26.00;99.90
9658;DHT22;4867;48.112;11.622;2022-08-25T11:06:17;25.90;99.90
9658;DHT22;4867;48.112;11.622;2022-08-25T11:08:59;25.80;99.90
9658;DHT22;4867;48.112;11.622;2022-08-25T11:11:52;25.90;99.90
9658;DHT22;4867;48.112;11.622;2022-08-25T11:14:48;25.80;99.90
9658;DHT22;4867;48.112;11.622;2022-08-25T11:17:33;25.70;99.90
9658;DHT22;4867;48.112;11.622;2022-08-25T11:20:07;25.80;99.90
9658;DHT22;4867;48.112;11.622;2022-08-25T11:25:53;26.20;99.90
9658;DHT22;4867;48.112;11.622;2022-08-25T11:28:38;26.40;99.90
9658;DHT22;4867;48.112;11.622;2022-08-25T11:31:09;26.60;99.90
9658;DHT22;4867;48.112;11.622;2022-08-25T11:33:37;26.80;99.90
9658;DHT22;4867;48.112;11.622;2022-08-25T11:36:29;26.90;99.90
9658;DHT22;4867;48.112;11.622;2022-08-25T11:50:27;27.40;99.90
9658;DHT22;4867;48.112;11.622;2022-08-25T11:53:35;27.50;99.90
9658;DHT22;4867;48.112;11.622;2022-08-25T11:56:07;27.50;99.90
9658;DHT22;4867;48.112;11.622;2022-08-25T12:12:36;28.00;99.90
9658;DHT22;4867;48.112;11.622;2022-08-25T12:15:34;28.10;99.90
9658;DHT22;4867;48.112;11.622;2022-08-25T12:31:49;28.10;99.90
9658;DHT22;4867;48.112;11.622;2022-08-25T12:37:21;28.40;99.90
9658;DHT22;4867;48.112;11.622;2022-08-25T12:47:52;28.80;99.90
9658;DHT22;4867;48.112;11.622;2022-08-25T12:50:43;28.80;99.90
9658;DHT22;4867;48.112;11.622;2022-08-25T12:56:06;28.80;99.90
9658;DHT22;4867;48.112;11.622;2022-08-25T13:04:26;28.00;99.90
9658;DHT22;4867;48.112;11.622;2022-08-25T13:07:16;27.90;99.90
9658;DHT22;4867;48.112;11.622;2022-08-25T13:10:09;27.80;99.90
9658;DHT22;4867;48.112;11.622;2022-08-25T13:15:23;27.90;99.90
9658;DHT22;4867;48.112;11.622;2022-08-25T13:17:51;27.80;99.90
9658;DHT22;4867;48.112;11.622;2022-08-25T13:20:29;27.80;99.90
9658;DHT22;4867;48.112;11.622;2022-08-25T13:22:58;27.80;99.90
9658;DHT22;4867;48.112;11.622;2022-08-25T13:25:27;27.90;99.90
9658;DHT22;4867;48.112;11.622;2022-08-25T13:28:00;28.00;99.90
9658;DHT22;4867;48.112;11.622;2022-08-25T13:30:35;28.00;99.90
9658;DHT22;4867;48.112;11.622;2022-08-25T13:33:20;27.90;99.90
9658;DHT22;4867;48.112;11.622;2022-08-25T13:35:50;27.80;99.90
9658;DHT22;4867;48.112;11.622;2022-08-25T13:38:46;27.70;99.90
9658;DHT22;4867;48.112;11.622;2022-08-25T13:41:23;27.70;99.90
9658;DHT22;4867;48.112;11.622;2022-08-25T13:43:56;27.80;99.90
9658;DHT22;4867;48.112;11.622;2022-08-25T13:46:26;27.90;99.90
9658;DHT22;4867;48.112;11.622;2022-08-25T13:49:03;28.10;99.90
9658;DHT22;4867;48.112;11.622;2022-08-25T13:51:31;28.20;99.90
9658;DHT22;4867;48.112;11.622;2022-08-25T13:54:01;28.30;99.90
9658;DHT22;4867;48.112;11.622;2022-08-25T13:56:38;28.40;99.90
9658;DHT22;4867;48.112;11.622;2022-08-25T13:59:35;28.40;99.90
9658;DHT22;4867;48.112;11.622;2022-08-25T14:02:08;28.60;99.90
9658;DHT22;4867;48.112;11.622;2022-08-25T14:04:46;28.60;99.90
9658;DHT22;4867;48.112;11.622;2022-08-25T14:12:31;29.10;99.90
9658;DHT22;4867;48.112;11.622;2022-08-25T14:15:00;29.30;99.90
9658;DHT22;4867;48.112;11.622;2022-08-25T14:17:27;29.30;99.90
9658;DHT22;4867;48.112;11.622;2022-08-25T14:20:14;29.40;99.90
9658;DHT22;4867;48.112;11.622;2022-08-25T14:22:42;29.50;99.90
9658;DHT22;4867;48.112;11.622;2022-08-25T14:25:09;29.30;99.90
9658;DHT22;4867;48.112;11.622;2022-08-25T14:27:41;29.20;99.90
9658;DHT22;4867;48.112;11.622;2022-08-25T14:30:30;29.20;99.90
9658;DHT22;4867;48.112;11.622;2022-08-25T14:32:59;29.40;99.90
9658;DHT22;4867;48.112;11.622;2022-08-25T14:35:27;29.30;99.90
9658;DHT22;4867;48.112;11.622;2022-08-25T14:37:57;29.30;99.90
9658;DHT22;4867;48.112;11.622;2022-08-25T14:40:24;29.30;99.90
9658;DHT22;4867;48.112;11.622;2022-08-25T14:42:51;29.20;99.90
9658;DHT22;4867;48.112;11.622;2022-08-25T14:45:18;29.20;99.90
9658;DHT22;4867;48.112;11.622;2022-08-25T14:47:45;29.10;99.90
9658;DHT22;4867;48.112;11.622;2022-08-25T14:50:17;29.10;99.90
9658;DHT22;4867;48.112;11.622;2022-08-25T14:52:46;29.00;99.90
9658;DHT22;4867;48.112;11.622;2022-08-25T14:55:18;29.00;99.90
9658;DHT22;4867;48.112;11.622;2022-08-25T14:57:57;29.10;99.90
9658;DHT22;4867;48.112;11.622;2022-08-25T15:00:24;29.10;99.90
9658;DHT22;4867;48.112;11.622;2022-08-25T15:02:52;28.90;99.90
9658;DHT22;4867;48.112;11.622;2022-08-25T15:05:24;28.80;99.90
9658;DHT22;4867;48.112;11.622;2022-08-25T15:07:54;28.90;99.90
9658;DHT22;4867;48.112;11.622;2022-08-25T15:10:40;28.90;99.90
9658;DHT22;4867;48.112;11.622;2022-08-25T15:13:09;28.80;99.90
9658;DHT22;4867;48.112;11.622;2022-08-25T15:15:38;28.80;99.90
9658;DHT22;4867;48.112;11.622;2022-08-25T15:18:19;28.70;99.90
9658;DHT22;4867;48.112;11.622;2022-08-25T15:20:47;28.70;99.90
9658;DHT22;4867;48.112;11.622;2022-08-25T15:23:17;28.70;99.90
9658;DHT22;4867;48.112;11.622;2022-08-25T15:25:45;28.60;99.90
9658;DHT22;4867;48.112;11.622;2022-08-25T15:28:13;28.50;99.90
9658;DHT22;4867;48.112;11.622;2022-08-25T15:30:43;28.40;99.90
9658;DHT22;4867;48.112;11.622;2022-08-25T15:33:12;28.30;99.90
9658;DHT22;4867;48.112;11.622;2022-08-25T15:35:39;28.20;99.90
9658;DHT22;4867;48.112;11.622;2022-08-25T15:38:07;28.20;99.90
9658;DHT22;4867;48.112;11.622;2022-08-25T15:40:34;28.20;99.90
9658;DHT22;4867;48.112;11.622;2022-08-25T15:43:04;28.10;99.90
9658;DHT22;4867;48.112;11.622;2022-08-25T15:45:32;28.20;99.90
9658;DHT22;4867;48.112;11.622;2022-08-25T15:48:01;28.20;99.90
9658;DHT22;4867;48.112;11.622;2022-08-25T15:50:28;28.10;99.90
9658;DHT22;4867;48.112;11.622;2022-08-25T15:52:56;28.10;99.90
9658;DHT22;4867;48.112;11.622;2022-08-25T15:55:23;28.20;99.90
9658;DHT22;4867;48.112;11.622;2022-08-25T15:57:50;28.20;99.90
9658;DHT22;4867;48.112;11.622;2022-08-25T16:00:18;28.20;99.90
9658;DHT22;4867;48.112;11.622;2022-08-25T16:02:47;28.30;99.90
9658;DHT22;4867;48.112;11.622;2022-08-25T16:05:14;28.30;99.90
9658;DHT22;4867;48.112;11.622;2022-08-25T16:07:42;28.30;99.90
9658;DHT22;4867;48.112;11.622;2022-08-25T16:10:12;28.20;99.90
9658;DHT22;4867;48.112;11.622;2022-08-25T16:12:39;28.20;99.90
9658;DHT22;4867;48.112;11.622;2022-08-25T16:15:08;28.20;99.90
9658;DHT22;4867;48.112;11.622;2022-08-25T16:17:38;28.10;99.90
9658;DHT22;4867;48.112;11.622;2022-08-25T16:20:08;28.00;99.90
9658;DHT22;4867;48.112;11.622;2022-08-25T16:22:40;28.00;99.90
9658;DHT22;4867;48.112;11.622;2022-08-25T16:25:08;27.90;99.90
9658;DHT22;4867;48.112;11.622;2022-08-25T16:27:36;27.80;99.90
9658;DHT22;4867;48.112;11.622;2022-08-25T16:30:06;27.70;99.90
9658;DHT22;4867;48.112;11.622;2022-08-25T16:32:34;27.70;99.90
9658;DHT22;4867;48.112;11.622;2022-08-25T16:35:02;27.60;99.90
9658;DHT22;4867;48.112;11.622;2022-08-25T16:37:29;27.60;99.90
9658;DHT22;4867;48.112;11.622;2022-08-25T16:39:56;27.60;99.90
9658;DHT22;4867;48.112;11.622;2022-08-25T16:42:23;27.50;99.90
9658;DHT22;4867;48.112;11.622;2022-08-25T16:44:52;27.50;99.90
9658;DHT22;4867;48.112;11.622;2022-08-25T16:47:20;27.50;99.90
9658;DHT22;4867;48.112;11.622;2022-08-25T16:49:52;27.40;99.90
9658;DHT22;4867;48.112;11.622;2022-08-25T16:52:20;27.40;99.90
9658;DHT22;4867;48.112;11.622;2022-08-25T16:55:09;27.30;99.90
9658;DHT22;4867;48.112;11.622;2022-08-25T16:57:42;27.20;99.90
9658;DHT22;4867;48.112;11.622;2022-08-25T17:00:12;27.00;99.90
9658;DHT22;4867;48.112;11.622;2022-08-25T17:02:40;26.90;99.90
9658;DHT22;4867;48.112;11.622;2022-08-25T17:05:08;26.80;99.90
9658;DHT22;4867;48.112;11.622;2022-08-25T17:07:37;26.70;99.90
9658;DHT22;4867;48.112;11.622;2022-08-25T17:10:05;26.70;99.90
9658;DHT22;4867;48.112;11.622;2022-08-25T17:12:38;26.60;99.90
9658;DHT22;4867;48.112;11.622;2022-08-25T17:15:06;26.60;99.90
9658;DHT22;4867;48.112;11.622;2022-08-25T17:17:33;26.60;99.90
9658;DHT22;4867;48.112;11.622;2022-08-25T17:20:03;26.70;99.90
9658;DHT22;4867;48.112;11.622;2022-08-25T17:22:30;26.70;99.90
9658;DHT22;4867;48.112;11.622;2022-08-25T17:24:57;26.70;99.90
9658;DHT22;4867;48.112;11.622;2022-08-25T17:27:27;26.70;99.90
9658;DHT22;4867;48.112;11.622;2022-08-25T17:29:54;26.70;99.90
9658;DHT22;4867;48.112;11.622;2022-08-25T17:32:21;26.60;99.90
9658;DHT22;4867;48.112;11.622;2022-08-25T17:34:56;26.50;99.90
9658;DHT22;4867;48.112;11.622;2022-08-25T17:37:23;26.40;99.90
9658;DHT22;4867;48.112;11.622;2022-08-25T17:39:51;26.40;99.90
9658;DHT22;4867;48.112;11.622;2022-08-25T17:42:29;26.30;99.90
9658;DHT22;4867;48.112;11.622;2022-08-25T17:44:57;26.20;99.90
9658;DHT22;4867;48.112;11.622;2022-08-25T17:47:25;26.10;99.90
9658;DHT22;4867;48.112;11.622;2022-08-25T17:49:53;26.00;99.90
9658;DHT22;4867;48.112;11.622;2022-08-25T17:52:20;25.90;99.90
9658;DHT22;4867;48.112;11.622;2022-08-25T17:54:51;25.80;99.90
9658;DHT22;4867;48.112;11.622;2022-08-25T17:57:18;25.70;99.90
9658;DHT22;4867;48.112;11.622;2022-08-25T17:59:46;25.60;99.90
9658;DHT22;4867;48.112;11.622;2022-08-25T18:02:13;25.50;99.90
9658;DHT22;4867;48.112;11.622;2022-08-25T18:04:40;25.40;99.90
9658;DHT22;4867;48.112;11.622;2022-08-25T18:07:08;25.40;99.90
9658;DHT22;4867;48.112;11.622;2022-08-25T18:09:35;25.30;99.90
9658;DHT22;4867;48.112;11.622;2022-08-25T18:12:03;25.20;99.90
9658;DHT22;4867;48.112;11.622;2022-08-25T18:14:29;25.10;99.90
9658;DHT22;4867;48.112;11.622;2022-08-25T18:16:56;25.10;99.90
9658;DHT22;4867;48.112;11.622;2022-08-25T18:19:23;25.00;99.90
9658;DHT22;4867;48.112;11.622;2022-08-25T18:21:50;25.00;99.90
9658;DHT22;4867;48.112;11.622;2022-08-25T18:24:18;24.90;99.90
9658;DHT22;4867;48.112;11.622;2022-08-25T18:26:45;24.80;99.90
9658;DHT22;4867;48.112;11.622;2022-08-25T18:29:12;24.70;99.90
9658;DHT22;4867;48.112;11.622;2022-08-25T18:31:42;24.70;99.90
9658;DHT22;4867;48.112;11.622;2022-08-25T18:34:10;24.60;99.90
9658;DHT22;4867;48.112;11.622;2022-08-25T18:36:39;24.50;99.90
9658;DHT22;4867;48.112;11.622;2022-08-25T18:39:06;24.40;99.90